South Britain, Connecticut
Current Conditions -  °F | °C
As of 6:52 AM on Friday 28 Nov 2014 (Local Time) from KOXC Reporting Station
Scattered Clouds Scattered Clouds  
Wind Chill: 19°   Ceiling: Unl
Heat Index: 27°   Visibility: 10mi
Dew Point: 18°   Wind: 7mph
Humidity: 69%   Direction: 320°NW
Pressure: 30.07"   Gusts: NA
Location:  41.47°N, 73.25°W
Report Text: KOXC 281152Z 32006KT 10SM SCT200 M03/M08 A3007
Loading
Personal Weather Stations






























Interactive Weather Map New forecast layout! Learn more

10-Day Weather Forecast

Advertisements
Track Severe Weather on mobile